createdAt,value
2022-09-27T00:01:52.945Z,79.70
2022-09-27T00:03:56.407Z,79.40
2022-09-27T00:06:05.384Z,79.60
2022-09-27T00:08:09.412Z,79.70
2022-09-27T00:10:14.138Z,79.60
2022-09-27T00:12:16.846Z,79.60
2022-09-27T00:14:19.771Z,79.60
2022-09-27T00:16:22.719Z,79.80
2022-09-27T00:18:26.896Z,80.00
2022-09-27T00:20:29.666Z,79.80
2022-09-27T00:22:32.612Z,79.90
2022-09-27T00:24:35.532Z,79.80
2022-09-27T00:26:38.225Z,79.80
2022-09-27T00:28:41.311Z,79.80
2022-09-27T00:30:44.169Z,79.80
2022-09-27T00:32:46.946Z,79.80
2022-09-27T00:34:51.022Z,79.80
2022-09-27T00:36:55.480Z,79.90
2022-09-27T00:39:00.040Z,80.10
2022-09-27T00:41:02.839Z,80.30
2022-09-27T00:43:16.683Z,80.10
2022-09-27T00:45:19.447Z,80.40
2022-09-27T00:47:28.223Z,80.50
2022-09-27T00:49:35.270Z,80.60
2022-09-27T00:51:40.627Z,80.50
2022-09-27T00:53:47.031Z,80.60
2022-09-27T00:55:54.212Z,80.70
2022-09-27T00:57:57.764Z,80.70
2022-09-27T01:00:03.779Z,80.80
2022-09-27T01:02:08.181Z,80.90
2022-09-27T01:04:13.395Z,80.90
2022-09-27T01:06:17.732Z,80.90
2022-09-27T01:08:21.802Z,80.80
2022-09-27T01:10:26.597Z,80.80
2022-09-27T01:12:37.039Z,80.90
2022-09-27T01:14:49.900Z,80.80
2022-09-27T01:17:02.962Z,80.70
2022-09-27T01:19:15.195Z,80.90
2022-09-27T01:21:52.885Z,80.80
2022-09-27T01:24:10.409Z,80.70
2022-09-27T01:26:21.671Z,80.80
2022-09-27T01:28:40.221Z,81.10
2022-09-27T01:30:48.700Z,81.30
2022-09-27T01:33:13.235Z,81.30
2022-09-27T01:35:22.778Z,81.40
2022-09-27T01:37:38.208Z,81.40
2022-09-27T01:39:51.000Z,81.40
2022-09-27T01:42:02.644Z,81.60
2022-09-27T01:44:10.575Z,81.50
2022-09-27T01:46:21.991Z,81.60
2022-09-27T01:48:26.933Z,81.70
2022-09-27T01:50:35.012Z,81.70
2022-09-27T01:52:44.009Z,81.50
2022-09-27T01:54:52.831Z,81.70
2022-09-27T01:56:59.380Z,82.00
2022-09-27T01:59:06.842Z,82.20
2022-09-27T02:01:10.735Z,82.20
2022-09-27T02:03:18.233Z,82.10
2022-09-27T02:05:25.832Z,82.00
2022-09-27T02:07:33.747Z,82.20
2022-09-27T02:09:41.274Z,82.00
2022-09-27T02:11:52.863Z,81.90
2022-09-27T02:14:04.043Z,82.00
2022-09-27T02:16:21.348Z,81.80
2022-09-27T02:18:33.909Z,81.90
2022-09-27T02:20:43.372Z,82.10
2022-09-27T02:22:50.341Z,82.10
2022-09-27T02:24:57.995Z,82.30
2022-09-27T02:27:07.416Z,82.20
2022-09-27T02:29:12.705Z,82.20
2022-09-27T02:31:15.465Z,82.10
2022-09-27T02:33:21.423Z,82.00
2022-09-27T02:35:30.039Z,82.10
2022-09-27T02:37:33.647Z,82.20
2022-09-27T02:39:36.435Z,82.10
2022-09-27T02:41:39.263Z,82.00
2022-09-27T02:43:44.048Z,82.20
2022-09-27T02:45:55.666Z,82.20
2022-09-27T02:48:13.965Z,82.30
2022-09-27T02:50:51.246Z,82.20
2022-09-27T02:53:01.804Z,82.20
2022-09-27T02:55:13.060Z,82.10
2022-09-27T02:57:29.554Z,82.00
2022-09-27T02:59:42.044Z,82.20
2022-09-27T03:01:55.611Z,82.20
2022-09-27T03:04:05.877Z,82.10
2022-09-27T03:06:12.919Z,82.00
2022-09-27T03:08:16.382Z,82.00
2022-09-27T03:10:21.734Z,81.70
2022-09-27T03:12:26.850Z,81.60
2022-09-27T03:14:29.616Z,81.70
2022-09-27T03:16:32.408Z,81.70
2022-09-27T03:18:35.462Z,81.60
2022-09-27T03:20:38.179Z,81.50
2022-09-27T03:22:42.327Z,81.60
2022-09-27T03:24:45.402Z,81.60
2022-09-27T03:26:48.196Z,81.50
2022-09-27T03:28:51.038Z,81.60
2022-09-27T03:30:53.877Z,81.40
2022-09-27T03:32:56.632Z,81.40
2022-09-27T03:35:01.761Z,81.50
2022-09-27T03:37:04.532Z,81.60
2022-09-27T03:39:08.796Z,81.60
2022-09-27T03:41:11.581Z,81.50
2022-09-27T03:43:14.294Z,81.60
2022-09-27T03:45:17.269Z,82.30
2022-09-27T03:47:20.000Z,81.50
2022-09-27T03:49:22.761Z,81.70
2022-09-27T03:51:25.661Z,81.70
2022-09-27T03:53:28.432Z,81.70
2022-09-27T03:55:32.474Z,81.70
2022-09-27T03:57:35.284Z,81.50
2022-09-27T03:59:40.167Z,81.60
2022-09-27T04:01:44.615Z,81.60
2022-09-27T04:03:47.459Z,81.70
2022-09-27T04:05:50.212Z,81.70
2022-09-27T04:07:53.087Z,81.50
2022-09-27T04:09:55.836Z,81.80
2022-09-27T04:12:00.027Z,81.90
2022-09-27T04:14:05.104Z,82.20
2022-09-27T04:16:08.278Z,82.30
2022-09-27T04:18:10.981Z,82.30
2022-09-27T04:20:13.710Z,82.20
2022-09-27T04:22:16.421Z,82.10
2022-09-27T04:24:19.202Z,81.80
2022-09-27T04:26:22.261Z,82.00
2022-09-27T04:28:26.387Z,82.70
2022-09-27T04:30:29.501Z,82.90
2022-09-27T04:32:32.258Z,82.20
2022-09-27T04:34:51.645Z,82.20
2022-09-27T04:36:54.341Z,81.90
2022-09-27T04:38:58.159Z,81.90
2022-09-27T04:41:02.076Z,81.90
2022-09-27T04:43:05.289Z,81.80
2022-09-27T04:45:09.901Z,81.90
2022-09-27T04:47:12.809Z,82.10
2022-09-27T04:49:17.691Z,82.20
2022-09-27T04:51:21.017Z,82.00
2022-09-27T04:53:23.880Z,82.00
2022-09-27T04:55:27.619Z,81.70
2022-09-27T04:57:30.393Z,81.90
2022-09-27T04:59:33.118Z,81.90
2022-09-27T05:01:37.224Z,81.80
2022-09-27T05:03:40.011Z,81.90
2022-09-27T05:05:42.737Z,81.60
2022-09-27T05:07:45.444Z,81.90
2022-09-27T05:09:50.206Z,81.70
2022-09-27T05:11:53.024Z,81.60
2022-09-27T05:13:55.925Z,81.80
2022-09-27T05:16:04.007Z,81.60
2022-09-27T05:18:09.785Z,81.80
2022-09-27T05:20:12.502Z,81.90
2022-09-27T05:22:15.421Z,81.90
2022-09-27T05:24:18.413Z,82.00
2022-09-27T05:26:21.780Z,82.30
2022-09-27T05:28:25.162Z,82.40
2022-09-27T05:30:28.331Z,83.00
2022-09-27T05:32:31.088Z,82.80
2022-09-27T05:34:35.143Z,82.60
2022-09-27T05:36:38.220Z,83.00
2022-09-27T05:38:41.879Z,83.10
2022-09-27T05:40:47.127Z,83.40
2022-09-27T05:42:50.446Z,83.30
2022-09-27T05:44:53.259Z,83.50
2022-09-27T05:46:56.152Z,83.70
2022-09-27T05:48:58.987Z,83.60
2022-09-27T05:51:03.048Z,83.90
2022-09-27T05:53:06.189Z,84.20
2022-09-27T05:55:09.476Z,84.00
2022-09-27T05:57:12.475Z,83.90
2022-09-27T05:59:15.494Z,83.70
2022-09-27T06:01:18.637Z,83.60
2022-09-27T06:03:21.493Z,84.20
2022-09-27T06:05:25.290Z,84.20
2022-09-27T06:07:31.008Z,84.20
2022-09-27T06:09:33.709Z,84.00
2022-09-27T06:11:36.605Z,84.20
2022-09-27T06:13:39.999Z,84.20
2022-09-27T06:15:44.899Z,84.30
2022-09-27T06:17:47.612Z,84.20
2022-09-27T06:19:50.294Z,84.20
2022-09-27T06:21:53.034Z,84.30
2022-09-27T06:23:59.571Z,84.20
2022-09-27T06:26:04.021Z,84.10
2022-09-27T06:28:06.982Z,84.00
2022-09-27T06:30:14.841Z,84.20
2022-09-27T06:32:20.844Z,84.10
2022-09-27T06:34:23.601Z,84.40
2022-09-27T06:36:26.433Z,84.00
2022-09-27T06:38:29.205Z,84.00
2022-09-27T06:40:33.355Z,83.80
2022-09-27T06:42:36.084Z,84.20
2022-09-27T06:44:39.404Z,84.40
2022-09-27T06:46:42.831Z,84.10
2022-09-27T06:48:45.626Z,84.30
2022-09-27T06:50:49.062Z,85.00
2022-09-27T06:52:52.228Z,84.90
2022-09-27T06:54:54.934Z,84.90
2022-09-27T06:57:02.359Z,84.80
2022-09-27T06:59:23.199Z,84.60
2022-09-27T07:01:29.603Z,84.20
2022-09-27T07:03:38.907Z,84.60
2022-09-27T07:05:43.872Z,84.50
2022-09-27T07:07:47.893Z,84.50
2022-09-27T07:09:50.894Z,84.70
2022-09-27T07:11:55.240Z,84.80
2022-09-27T07:13:59.411Z,84.80
2022-09-27T07:16:02.888Z,85.10
2022-09-27T07:18:08.248Z,84.90
2022-09-27T07:20:11.713Z,84.80
2022-09-27T07:22:16.426Z,85.10
2022-09-27T07:24:19.190Z,84.30
2022-09-27T07:26:22.767Z,84.40
2022-09-27T07:28:25.742Z,84.70
2022-09-27T07:30:34.102Z,84.90
2022-09-27T07:32:37.649Z,85.00
2022-09-27T07:34:40.355Z,84.90
2022-09-27T07:36:43.160Z,84.80
2022-09-27T07:38:45.938Z,84.80
2022-09-27T07:40:48.770Z,84.70
2022-09-27T07:42:56.000Z,84.20
2022-09-27T07:44:59.064Z,84.80
2022-09-27T07:47:03.119Z,85.30
2022-09-27T07:49:06.784Z,85.20
2022-09-27T07:51:11.863Z,85.30
2022-09-27T07:53:15.060Z,85.40
2022-09-27T07:55:18.940Z,85.20
2022-09-27T07:57:23.525Z,85.60
2022-09-27T07:59:26.707Z,85.20
2022-09-27T08:01:29.466Z,85.40
2022-09-27T08:03:34.921Z,84.90
2022-09-27T08:05:38.024Z,85.50
2022-09-27T08:07:41.714Z,85.60
2022-09-27T08:09:44.449Z,85.80
2022-09-27T08:11:47.184Z,86.10
2022-09-27T08:13:52.586Z,86.00
2022-09-27T08:15:55.316Z,85.70
2022-09-27T08:17:58.023Z,86.00
2022-09-27T08:20:06.322Z,85.90
2022-09-27T08:22:09.643Z,86.10
2022-09-27T08:24:12.724Z,86.10
2022-09-27T08:26:15.514Z,86.40
2022-09-27T08:28:19.320Z,85.80
2022-09-27T08:30:22.011Z,85.60
2022-09-27T08:32:24.706Z,85.20
2022-09-27T08:34:28.306Z,85.30
2022-09-27T08:36:35.924Z,85.30
2022-09-27T08:38:38.628Z,85.20
2022-09-27T08:40:51.495Z,85.50
2022-09-27T08:43:02.515Z,85.40
2022-09-27T08:45:12.696Z,85.40
2022-09-27T08:47:19.204Z,86.10
2022-09-27T08:49:29.064Z,85.10
2022-09-27T08:51:34.954Z,85.60
2022-09-27T08:53:42.518Z,84.90
2022-09-27T08:55:50.437Z,84.00
2022-09-27T08:57:57.781Z,84.40
2022-09-27T09:00:06.236Z,85.10
2022-09-27T09:02:18.917Z,85.20
2022-09-27T09:04:31.976Z,84.70
2022-09-27T09:06:41.849Z,84.70
2022-09-27T09:09:01.942Z,82.50
2022-09-27T09:11:29.262Z,82.40
2022-09-27T09:13:45.023Z,83.40
2022-09-27T09:15:56.194Z,84.10
2022-09-27T09:18:21.112Z,83.90
2022-09-27T09:20:37.015Z,84.20
2022-09-27T09:22:54.115Z,83.60
2022-09-27T09:25:15.383Z,83.60
2022-09-27T09:27:25.120Z,83.70
2022-09-27T09:29:46.969Z,83.30
2022-09-27T09:31:57.540Z,84.30
2022-09-27T09:34:06.473Z,83.90
2022-09-27T09:36:20.296Z,84.20
2022-09-27T09:38:28.304Z,83.10
2022-09-27T09:40:37.280Z,82.60
2022-09-27T09:42:44.871Z,82.40
2022-09-27T09:44:55.116Z,82.50
2022-09-27T09:47:02.534Z,82.00
2022-09-27T09:49:15.352Z,82.70
2022-09-27T09:51:23.016Z,83.10
2022-09-27T09:53:35.314Z,82.00
2022-09-27T09:55:39.640Z,81.70
2022-09-27T09:57:50.098Z,82.40
2022-09-27T09:59:59.397Z,80.50
2022-09-27T10:02:19.056Z,79.80
2022-09-27T10:04:24.608Z,79.60
2022-09-27T10:06:29.681Z,78.30
2022-09-27T10:08:34.234Z,79.90
2022-09-27T10:10:36.969Z,79.30
2022-09-27T10:12:39.664Z,79.80
2022-09-27T10:14:43.302Z,78.90
2022-09-27T10:16:48.822Z,79.20
2022-09-27T10:18:56.249Z,79.10
2022-09-27T10:21:04.146Z,80.00
2022-09-27T10:23:14.072Z,80.20
2022-09-27T10:25:18.391Z,79.50
2022-09-27T10:27:21.417Z,79.70
2022-09-27T10:29:33.604Z,79.70
2022-09-27T10:31:41.785Z,78.50
2022-09-27T10:33:55.389Z,77.60
2022-09-27T10:35:58.426Z,78.00
2022-09-27T10:38:21.509Z,76.90
2022-09-27T10:40:33.632Z,77.00
2022-09-27T10:42:38.593Z,77.80
2022-09-27T10:44:41.329Z,78.50
2022-09-27T10:46:45.652Z,77.40
2022-09-27T10:48:48.401Z,77.20
2022-09-27T10:50:59.537Z,77.30
2022-09-27T10:53:04.704Z,77.90
2022-09-27T10:55:20.846Z,78.80
2022-09-27T10:57:28.112Z,78.90
2022-09-27T10:59:32.491Z,78.90
2022-09-27T11:01:45.449Z,78.70
2022-09-27T11:03:54.647Z,78.10
2022-09-27T11:05:59.406Z,78.30
2022-09-27T11:08:04.043Z,77.60
2022-09-27T11:10:25.102Z,78.20
2022-09-27T11:12:30.503Z,78.20
2022-09-27T11:14:33.568Z,76.20
2022-09-27T11:16:51.679Z,76.10
2022-09-27T11:19:10.885Z,76.90
2022-09-27T11:21:26.484Z,74.90
2022-09-27T11:24:01.813Z,74.20
2022-09-27T11:26:24.064Z,75.40
2022-09-27T11:28:39.959Z,74.60
2022-09-27T11:30:51.573Z,75.20
2022-09-27T11:33:21.761Z,75.80
2022-09-27T11:35:42.054Z,75.50
2022-09-27T11:37:51.510Z,75.30
2022-09-27T11:40:06.003Z,74.60
2022-09-27T11:42:25.544Z,75.30
2022-09-27T11:44:45.088Z,76.00
2022-09-27T11:46:53.861Z,76.40
2022-09-27T11:49:21.056Z,76.60
2022-09-27T11:51:38.252Z,77.50
2022-09-27T11:53:59.566Z,77.80
2022-09-27T11:56:13.420Z,78.10
2022-09-27T11:58:27.833Z,78.00
2022-09-27T12:00:47.744Z,77.00
2022-09-27T12:03:25.341Z,77.40
2022-09-27T12:05:36.278Z,77.70
2022-09-27T12:07:46.839Z,77.50
2022-09-27T12:09:53.903Z,77.60
2022-09-27T12:12:02.842Z,77.50
2022-09-27T12:14:09.963Z,77.30
2022-09-27T12:16:17.678Z,77.50
2022-09-27T12:18:28.557Z,77.50
2022-09-27T12:20:36.201Z,77.20
2022-09-27T12:22:59.023Z,77.90
2022-09-27T12:25:04.390Z,77.80
2022-09-27T12:27:14.967Z,77.30
2022-09-27T12:29:22.880Z,77.30
2022-09-27T12:31:32.479Z,77.20
2022-09-27T12:33:40.443Z,76.10
2022-09-27T12:35:48.494Z,76.70
2022-09-27T12:37:59.352Z,76.80
2022-09-27T12:40:07.910Z,76.00
2022-09-27T12:42:19.976Z,76.80
2022-09-27T12:44:25.472Z,76.80
2022-09-27T12:46:39.667Z,76.60
2022-09-27T12:48:50.549Z,76.40
2022-09-27T12:50:56.486Z,75.00
2022-09-27T12:53:05.362Z,75.30
2022-09-27T12:55:37.307Z,75.40
2022-09-27T12:57:50.130Z,73.90
2022-09-27T13:00:03.919Z,74.00
2022-09-27T13:03:14.844Z,72.60
2022-09-27T13:05:49.684Z,73.30
2022-09-27T13:08:05.294Z,74.30
2022-09-27T13:10:26.225Z,74.00
2022-09-27T13:12:30.341Z,73.40
2022-09-27T13:14:46.345Z,73.80
2022-09-27T13:16:51.347Z,73.90
2022-09-27T13:19:01.402Z,74.90
2022-09-27T13:21:06.328Z,75.40
2022-09-27T13:24:01.542Z,75.40
2022-09-27T13:26:21.368Z,76.00
2022-09-27T13:28:36.489Z,76.10
2022-09-27T13:30:48.126Z,75.50
2022-09-27T13:33:32.935Z,76.30
2022-09-27T13:35:37.533Z,76.10
2022-09-27T13:37:55.318Z,77.10
2022-09-27T13:40:27.461Z,77.20
2022-09-27T13:42:40.672Z,77.50
2022-09-27T13:44:56.756Z,76.60
2022-09-27T13:47:03.860Z,76.70
2022-09-27T13:49:16.193Z,77.10
2022-09-27T13:51:29.127Z,76.70
2022-09-27T13:53:35.621Z,74.90
2022-09-27T13:55:43.751Z,75.60
2022-09-27T13:57:52.455Z,75.80
2022-09-27T13:59:59.707Z,76.40
2022-09-27T14:02:14.430Z,76.80
2022-09-27T14:04:21.092Z,76.60
2022-09-27T14:06:30.176Z,76.50
2022-09-27T14:08:38.024Z,76.40
2022-09-27T14:10:44.484Z,76.10
2022-09-27T14:12:47.382Z,75.90
2022-09-27T14:14:51.487Z,76.40
2022-09-27T14:16:54.482Z,75.30
2022-09-27T14:18:59.520Z,75.40
2022-09-27T14:21:16.156Z,75.70
2022-09-27T14:23:24.054Z,75.90
2022-09-27T14:25:26.886Z,76.50
2022-09-27T14:27:31.517Z,76.60
2022-09-27T14:29:40.761Z,77.00
2022-09-27T14:31:43.814Z,76.20
2022-09-27T14:33:47.083Z,75.60
2022-09-27T14:36:08.787Z,74.90
2022-09-27T14:38:36.025Z,75.10
2022-09-27T14:40:43.571Z,75.30
2022-09-27T14:42:46.860Z,74.00
2022-09-27T14:44:51.078Z,74.10
2022-09-27T14:47:10.127Z,74.50
2022-09-27T14:49:20.003Z,74.30
2022-09-27T14:51:28.023Z,74.70
2022-09-27T14:53:32.744Z,75.00
2022-09-27T14:55:35.742Z,75.10
2022-09-27T14:57:41.772Z,75.10
2022-09-27T14:59:46.998Z,74.80
2022-09-27T15:01:51.282Z,75.00
2022-09-27T15:03:54.617Z,74.00
2022-09-27T15:05:59.643Z,73.50
2022-09-27T15:08:05.799Z,73.80
2022-09-27T15:10:14.539Z,73.10
2022-09-27T15:12:25.382Z,73.40
2022-09-27T15:14:33.048Z,73.80
2022-09-27T15:16:36.539Z,74.00
2022-09-27T15:18:44.050Z,74.20
2022-09-27T15:20:54.515Z,73.10
2022-09-27T15:22:58.638Z,73.00
2022-09-27T15:25:07.434Z,73.60
2022-09-27T15:27:18.575Z,73.60
2022-09-27T15:29:23.382Z,73.00
2022-09-27T15:31:32.158Z,72.70
2022-09-27T15:33:35.816Z,72.90
2022-09-27T15:35:38.605Z,73.50
2022-09-27T15:37:41.572Z,73.30
2022-09-27T15:39:45.724Z,74.10
2022-09-27T15:42:09.873Z,75.00
2022-09-27T15:44:40.393Z,76.00
2022-09-27T15:46:46.563Z,76.60
2022-09-27T15:49:30.180Z,76.50
2022-09-27T15:51:51.106Z,77.50
2022-09-27T15:53:53.896Z,77.10
2022-09-27T15:55:56.653Z,77.10
2022-09-27T15:58:02.563Z,77.00
2022-09-27T16:00:07.099Z,76.70
2022-09-27T16:02:16.846Z,76.60
2022-09-27T16:04:19.676Z,76.40
2022-09-27T16:06:26.616Z,76.30
2022-09-27T16:08:30.117Z,76.60
2022-09-27T16:10:39.223Z,76.80
2022-09-27T16:12:42.034Z,77.20
2022-09-27T16:14:44.784Z,76.90
2022-09-27T16:16:51.168Z,76.90
2022-09-27T16:18:54.000Z,77.00
2022-09-27T16:20:58.208Z,76.90
2022-09-27T16:23:03.070Z,76.80
2022-09-27T16:25:06.619Z,77.00
2022-09-27T16:27:09.330Z,77.20
2022-09-27T16:29:14.241Z,77.10
2022-09-27T16:31:18.388Z,76.80
2022-09-27T16:33:21.273Z,76.80
2022-09-27T16:35:25.148Z,76.80
2022-09-27T16:37:30.192Z,76.80
2022-09-27T16:39:34.393Z,76.80
2022-09-27T16:41:38.669Z,77.30
2022-09-27T16:43:41.423Z,77.90
2022-09-27T16:45:44.167Z,77.20
2022-09-27T16:47:46.904Z,77.30
2022-09-27T16:50:07.224Z,77.30
2022-09-27T16:52:10.409Z,77.20
2022-09-27T16:54:15.812Z,76.90
2022-09-27T16:56:20.420Z,76.80
2022-09-27T16:58:23.167Z,77.00
2022-09-27T17:00:26.419Z,76.90
2022-09-27T17:02:29.356Z,77.00
2022-09-27T17:04:32.292Z,76.90
2022-09-27T17:06:35.172Z,76.60
2022-09-27T17:08:38.102Z,76.80
2022-09-27T17:10:46.240Z,76.80
2022-09-27T17:12:51.218Z,77.00
2022-09-27T17:14:54.084Z,77.00
2022-09-27T17:16:57.110Z,77.10
2022-09-27T17:19:00.203Z,77.10
2022-09-27T17:21:03.473Z,77.20
2022-09-27T17:23:06.281Z,77.20
2022-09-27T17:25:10.179Z,77.10
2022-09-27T17:27:13.219Z,77.30
2022-09-27T17:29:19.354Z,77.40
2022-09-27T17:31:22.382Z,77.40
2022-09-27T17:33:25.144Z,77.40
2022-09-27T17:35:27.977Z,77.50
2022-09-27T17:37:30.861Z,77.50
2022-09-27T17:39:33.733Z,77.50
2022-09-27T17:41:40.078Z,77.50
2022-09-27T17:43:50.311Z,77.60
2022-09-27T17:45:54.660Z,77.70
2022-09-27T17:48:15.505Z,77.70
2022-09-27T17:50:28.516Z,77.80
2022-09-27T17:52:35.808Z,77.70
2022-09-27T17:54:38.675Z,77.80
2022-09-27T17:56:43.305Z,77.90
2022-09-27T17:58:49.865Z,78.00
2022-09-27T18:00:57.329Z,78.10
2022-09-27T18:03:03.389Z,78.00
2022-09-27T18:05:06.873Z,77.90
2022-09-27T18:07:13.086Z,78.00
2022-09-27T18:09:17.877Z,77.90
2022-09-27T18:11:25.258Z,78.00
2022-09-27T18:13:29.005Z,77.90
2022-09-27T18:15:31.738Z,77.80
2022-09-27T18:17:36.854Z,78.10
2022-09-27T18:19:39.657Z,78.20
2022-09-27T18:21:42.644Z,78.20
2022-09-27T18:23:45.851Z,78.10
2022-09-27T18:25:55.126Z,78.20
2022-09-27T18:27:57.933Z,78.10
2022-09-27T18:30:03.368Z,78.10
2022-09-27T18:32:06.198Z,78.10
2022-09-27T18:34:10.610Z,77.90
2022-09-27T18:36:15.427Z,78.00
2022-09-27T18:38:18.199Z,77.80
2022-09-27T18:40:38.019Z,77.50
2022-09-27T18:42:43.863Z,78.20
2022-09-27T18:44:46.692Z,78.70
2022-09-27T18:46:51.768Z,78.20
2022-09-27T18:48:54.850Z,78.20
2022-09-27T18:50:59.080Z,78.70
2022-09-27T18:53:01.901Z,79.00
2022-09-27T18:55:04.979Z,79.10
2022-09-27T18:57:07.843Z,79.10
2022-09-27T18:59:11.825Z,78.80
2022-09-27T19:01:16.811Z,78.80
2022-09-27T19:03:19.681Z,78.80
2022-09-27T19:05:22.560Z,79.10
2022-09-27T19:07:26.822Z,79.20
2022-09-27T19:09:29.622Z,79.20
2022-09-27T19:11:33.016Z,79.10
2022-09-27T19:13:46.132Z,79.20
2022-09-27T19:15:56.638Z,79.20
2022-09-27T19:17:59.473Z,78.90
2022-09-27T19:20:02.963Z,78.70
2022-09-27T19:22:05.778Z,78.70
2022-09-27T19:24:09.858Z,78.80
2022-09-27T19:26:14.611Z,78.70
2022-09-27T19:28:18.049Z,78.90
2022-09-27T19:30:21.284Z,78.90
2022-09-27T19:32:24.023Z,79.10
2022-09-27T19:34:26.744Z,78.90
2022-09-27T19:36:29.755Z,79.10
2022-09-27T19:38:32.876Z,79.10
2022-09-27T19:40:36.969Z,78.90
2022-09-27T19:42:39.788Z,78.90
2022-09-27T19:44:42.831Z,79.30
2022-09-27T19:46:46.032Z,79.30
2022-09-27T19:48:50.334Z,79.40
2022-09-27T19:50:59.804Z,79.40
2022-09-27T19:53:02.511Z,79.40
2022-09-27T19:55:06.193Z,79.30
2022-09-27T19:57:10.260Z,79.40
2022-09-27T19:59:13.328Z,79.40
2022-09-27T20:01:19.223Z,79.40
2022-09-27T20:03:22.105Z,79.30
2022-09-27T20:05:24.906Z,79.50
2022-09-27T20:07:27.610Z,79.50
2022-09-27T20:09:30.352Z,79.40
2022-09-27T20:11:33.988Z,79.50
2022-09-27T20:13:39.057Z,79.50
2022-09-27T20:15:43.572Z,79.40
2022-09-27T20:17:46.416Z,79.50
2022-09-27T20:19:49.337Z,79.70
2022-09-27T20:21:52.130Z,79.70
2022-09-27T20:23:56.160Z,79.80
2022-09-27T20:26:02.996Z,79.80
2022-09-27T20:28:05.763Z,79.70
2022-09-27T20:30:11.708Z,79.70
2022-09-27T20:32:29.770Z,79.60
2022-09-27T20:34:32.616Z,79.60
2022-09-27T20:36:38.542Z,79.70
2022-09-27T20:38:42.083Z,79.60
2022-09-27T20:40:45.104Z,79.70
2022-09-27T20:42:48.730Z,79.50
2022-09-27T20:44:54.361Z,79.50
2022-09-27T20:46:58.856Z,79.50
2022-09-27T20:49:03.415Z,79.70
2022-09-27T20:51:06.975Z,79.70
2022-09-27T20:53:09.939Z,79.70
2022-09-27T20:55:12.789Z,79.70
2022-09-27T20:57:15.907Z,79.80
2022-09-27T20:59:21.359Z,79.70
2022-09-27T21:01:26.066Z,79.70
2022-09-27T21:03:30.277Z,79.70
2022-09-27T21:05:33.052Z,79.90
2022-09-27T21:07:35.948Z,80.00
2022-09-27T21:09:38.923Z,79.90
2022-09-27T21:11:44.231Z,79.80
2022-09-27T21:13:51.665Z,80.10
2022-09-27T21:15:54.530Z,80.00
2022-09-27T21:17:57.743Z,80.10
2022-09-27T21:20:02.469Z,80.20
2022-09-27T21:22:05.270Z,80.10
2022-09-27T21:24:08.288Z,80.00
2022-09-27T21:26:13.946Z,80.00
2022-09-27T21:28:17.173Z,79.90
2022-09-27T21:30:19.994Z,79.80
2022-09-27T21:32:22.836Z,79.70
2022-09-27T21:34:25.724Z,79.80
2022-09-27T21:36:31.764Z,79.80
2022-09-27T21:38:35.442Z,79.60
2022-09-27T21:40:38.254Z,79.70
2022-09-27T21:42:41.412Z,79.60
2022-09-27T21:44:44.151Z,79.70
2022-09-27T21:46:46.872Z,79.80
2022-09-27T21:48:51.324Z,79.70
2022-09-27T21:50:54.045Z,79.60
2022-09-27T21:53:00.963Z,79.50
2022-09-27T21:55:06.181Z,79.60
2022-09-27T21:57:08.883Z,79.50
2022-09-27T21:59:18.278Z,79.80
2022-09-27T22:01:22.914Z,79.60
2022-09-27T22:03:25.667Z,80.20
2022-09-27T22:05:28.637Z,79.50
2022-09-27T22:07:31.454Z,79.50
2022-09-27T22:09:35.580Z,79.30
2022-09-27T22:11:40.101Z,79.40
2022-09-27T22:13:42.827Z,79.40
2022-09-27T22:15:45.673Z,79.30
2022-09-27T22:17:48.435Z,79.40
2022-09-27T22:19:51.198Z,79.20
2022-09-27T22:21:53.854Z,79.30
2022-09-27T22:23:57.839Z,79.50
2022-09-27T22:26:12.878Z,79.40
2022-09-27T22:28:15.630Z,79.40
2022-09-27T22:30:18.541Z,79.40
2022-09-27T22:32:21.304Z,79.30
2022-09-27T22:34:29.753Z,79.30
2022-09-27T22:36:33.351Z,79.30
2022-09-27T22:38:36.177Z,79.40
2022-09-27T22:40:38.894Z,79.30
2022-09-27T22:42:42.960Z,79.30
2022-09-27T22:44:45.736Z,79.20
2022-09-27T22:46:48.598Z,79.20
2022-09-27T22:48:51.402Z,79.30
2022-09-27T22:50:54.095Z,79.20
2022-09-27T22:52:56.771Z,79.00
2022-09-27T22:54:59.467Z,78.90
2022-09-27T22:57:02.514Z,79.20
2022-09-27T22:59:06.793Z,78.80
2022-09-27T23:01:10.526Z,79.00
2022-09-27T23:03:13.297Z,79.00
2022-09-27T23:05:16.087Z,79.00
2022-09-27T23:07:18.760Z,78.90
2022-09-27T23:09:21.550Z,79.00
2022-09-27T23:11:24.411Z,78.80
2022-09-27T23:13:31.443Z,78.90
2022-09-27T23:15:35.672Z,79.00
2022-09-27T23:17:38.529Z,79.00
2022-09-27T23:19:41.219Z,79.00
2022-09-27T23:21:43.937Z,79.10
2022-09-27T23:23:49.584Z,78.90
2022-09-27T23:25:59.076Z,78.80
2022-09-27T23:28:02.072Z,78.80
2022-09-27T23:30:05.312Z,79.30
2022-09-27T23:32:09.337Z,79.10
2022-09-27T23:34:14.771Z,78.90
2022-09-27T23:36:19.681Z,79.00
2022-09-27T23:38:22.437Z,79.20
2022-09-27T23:40:25.675Z,79.40
2022-09-27T23:42:28.392Z,79.50
2022-09-27T23:44:31.311Z,79.50
2022-09-27T23:46:34.080Z,79.40
2022-09-27T23:48:38.818Z,79.40
2022-09-27T23:50:44.125Z,79.50
2022-09-27T23:52:46.915Z,79.40
2022-09-27T23:54:50.236Z,79.40
2022-09-27T23:56:52.921Z,79.30
2022-09-27T23:58:55.592Z,79.20
